Loogootee, Illinois
Current Conditions -  °F | °C
As of 10:35 AM on Tuesday 21 Oct 2014 (Local Time) from KSLO Reporting Station
Clear Clear  
Wind Chill: 61°   Ceiling: Unl
Heat Index: 61°   Visibility: 10mi
Dew Point: 47°   Wind: 7mph
Humidity: 61%   Direction: 30°NNE
Pressure: 30.13"   Gusts: NA
Location:  38.9°N, 88.85°W
Report Text: KSLO 211535Z AUTO 03006KT 10SM CLR 16/09 A3013 RMK AO2 T01600085
Loading
Personal Weather Stations






























Interactive Weather Map
Tropical Storm Tracking
New forecast layout! Learn more

10-Day Weather Forecast

Advertisements
Track Severe Weather on mobile